createdAt,value
2023-05-04T00:01:46.894Z,14.00
2023-05-04T00:04:53.058Z,15.25
2023-05-04T00:07:56.529Z,15.15
2023-05-04T00:10:59.902Z,15.68
2023-05-04T00:14:03.180Z,14.40
2023-05-04T00:17:07.819Z,15.50
2023-05-04T00:20:13.860Z,16.63
2023-05-04T00:23:17.141Z,15.23
2023-05-04T00:26:20.406Z,16.52
2023-05-04T00:29:24.228Z,17.08
2023-05-04T00:32:27.675Z,16.83
2023-05-04T00:35:33.042Z,16.20
2023-05-04T00:38:48.046Z,14.88
2023-05-04T00:41:51.248Z,13.20
2023-05-04T00:44:54.623Z,13.32
2023-05-04T00:47:58.487Z,12.52
2023-05-04T00:51:03.947Z,10.73
2023-05-04T00:54:07.706Z,10.43
2023-05-04T00:57:10.957Z,11.45
2023-05-04T01:00:14.825Z,11.02
2023-05-04T01:03:18.455Z,11.32
2023-05-04T01:06:32.294Z,11.65
2023-05-04T01:09:41.401Z,12.13
2023-05-04T01:12:52.385Z,12.35
2023-05-04T01:15:56.533Z,12.25
2023-05-04T01:18:59.714Z,12.90
2023-05-04T01:22:04.465Z,13.60
2023-05-04T01:25:09.020Z,15.00
2023-05-04T01:28:19.778Z,13.48
2023-05-04T01:31:24.654Z,12.63
2023-05-04T01:34:28.018Z,13.25
2023-05-04T01:37:32.745Z,13.05
2023-05-04T01:40:35.904Z,13.52
2023-05-04T01:43:39.082Z,14.30
2023-05-04T01:46:42.717Z,13.38
2023-05-04T01:49:45.978Z,12.90
2023-05-04T01:52:50.728Z,12.75
2023-05-04T01:55:54.220Z,12.88
2023-05-04T01:58:57.372Z,12.93
2023-05-04T02:02:00.666Z,11.55
2023-05-04T02:05:03.934Z,12.32
2023-05-04T02:08:08.741Z,11.18
2023-05-04T02:11:12.339Z,11.20
2023-05-04T02:14:15.895Z,10.98
2023-05-04T02:17:19.104Z,11.65
2023-05-04T02:20:22.269Z,11.25
2023-05-04T02:23:26.832Z,11.40
2023-05-04T02:26:30.043Z,10.88
2023-05-04T02:29:33.624Z,11.15
2023-05-04T02:32:37.549Z,11.15
2023-05-04T02:35:40.741Z,11.43
2023-05-04T02:38:45.288Z,11.20
2023-05-04T02:41:48.660Z,11.25
2023-05-04T02:44:51.860Z,10.73
2023-05-04T02:47:55.389Z,11.07
2023-05-04T02:50:58.871Z,11.38
2023-05-04T02:54:03.602Z,10.55
2023-05-04T02:57:07.422Z,10.85
2023-05-04T03:00:11.402Z,11.20
2023-05-04T03:03:14.561Z,11.30
2023-05-04T03:06:17.839Z,10.65
2023-05-04T03:09:22.465Z,10.73
2023-05-04T03:12:26.243Z,11.05
2023-05-04T03:15:30.088Z,11.02
2023-05-04T03:21:54.490Z,11.05
2023-05-04T03:24:59.053Z,11.38
2023-05-04T03:28:02.212Z,10.63
2023-05-04T03:31:05.529Z,12.25
2023-05-04T03:34:09.943Z,11.32
2023-05-04T03:37:13.205Z,11.63
2023-05-04T03:40:22.293Z,11.98
2023-05-04T03:43:26.908Z,12.55
2023-05-04T03:46:32.316Z,11.57
2023-05-04T03:49:35.979Z,12.32
2023-05-04T03:52:39.263Z,12.20
2023-05-04T03:55:44.484Z,12.27
2023-05-04T03:58:47.762Z,12.30
2023-05-04T04:01:54.721Z,13.27
2023-05-04T04:04:57.970Z,12.35
2023-05-04T04:08:01.459Z,12.75
2023-05-04T04:11:06.419Z,11.93
2023-05-04T04:14:09.652Z,12.18
2023-05-04T04:17:13.063Z,14.23
2023-05-04T04:20:16.340Z,13.95
2023-05-04T04:23:19.574Z,12.05
2023-05-04T04:26:24.121Z,11.35
2023-05-04T04:29:27.535Z,10.40
2023-05-04T04:32:30.843Z,9.55
2023-05-04T04:35:34.309Z,9.90
2023-05-04T04:38:37.913Z,8.98
2023-05-04T04:41:42.547Z,8.38
2023-05-04T04:44:46.156Z,8.48
2023-05-04T04:47:49.600Z,9.13
2023-05-04T04:50:53.928Z,9.65
2023-05-04T04:53:57.167Z,8.70
2023-05-04T04:57:02.377Z,9.13
2023-05-04T05:00:11.668Z,8.80
2023-05-04T05:03:15.995Z,7.77
2023-05-04T05:06:19.619Z,7.38
2023-05-04T05:09:22.939Z,6.78
2023-05-04T05:12:28.203Z,7.70
2023-05-04T05:15:31.632Z,8.10
2023-05-04T05:18:34.989Z,7.35
2023-05-04T05:21:38.567Z,7.80
2023-05-04T05:24:42.096Z,7.30
2023-05-04T05:27:47.027Z,7.30
2023-05-04T05:30:52.102Z,7.05
2023-05-04T05:33:55.537Z,6.55
2023-05-04T05:36:58.996Z,6.88
2023-05-04T05:40:02.859Z,6.50
2023-05-04T05:43:07.850Z,6.45
2023-05-04T05:46:11.626Z,6.40
2023-05-04T05:49:15.194Z,6.05
2023-05-04T05:52:18.466Z,6.95
2023-05-04T05:55:21.698Z,6.38
2023-05-04T05:58:26.304Z,5.93
2023-05-04T06:01:30.153Z,5.70
2023-05-04T06:04:33.495Z,5.85
2023-05-04T06:07:36.814Z,5.57
2023-05-04T06:10:40.253Z,5.72
2023-05-04T06:13:44.850Z,5.60
2023-05-04T06:16:48.317Z,5.50
2023-05-04T06:19:52.018Z,4.70
2023-05-04T06:22:55.273Z,4.57
2023-05-04T06:25:59.000Z,4.65
2023-05-04T06:29:03.758Z,4.78
2023-05-04T06:32:07.474Z,4.55
2023-05-04T06:35:11.670Z,4.50
2023-05-04T06:38:15.038Z,4.38
2023-05-04T06:41:18.341Z,4.88
2023-05-04T06:44:23.167Z,4.50
2023-05-04T06:47:26.734Z,4.95
2023-05-04T06:50:30.540Z,5.22
2023-05-04T06:53:33.979Z,5.30
2023-05-04T06:56:38.674Z,4.63
2023-05-04T06:59:43.400Z,4.50
2023-05-04T07:02:47.086Z,3.72
2023-05-04T07:05:51.297Z,3.70
2023-05-04T07:08:54.739Z,3.75
2023-05-04T07:11:58.085Z,3.72
2023-05-04T07:15:02.813Z,3.17
2023-05-04T07:18:06.228Z,3.88
2023-05-04T07:21:26.949Z,2.92
2023-05-04T07:24:34.520Z,2.88
2023-05-04T07:27:45.588Z,3.45
2023-05-04T07:30:50.282Z,2.80
2023-05-04T07:33:53.645Z,3.00
2023-05-04T07:36:56.898Z,2.97
2023-05-04T07:40:01.391Z,2.63
2023-05-04T07:43:05.701Z,3.00
2023-05-04T07:46:10.450Z,2.17
2023-05-04T07:49:13.836Z,2.20
2023-05-04T07:52:17.169Z,2.20
2023-05-04T07:55:20.695Z,2.10
2023-05-04T07:58:24.024Z,2.63
2023-05-04T08:01:28.650Z,2.40
2023-05-04T08:04:31.962Z,2.45
2023-05-04T08:07:35.209Z,2.30
2023-05-04T08:10:38.709Z,2.13
2023-05-04T08:13:42.123Z,2.42
2023-05-04T08:16:47.420Z,2.50
2023-05-04T08:19:50.992Z,2.80
2023-05-04T08:22:54.461Z,2.53
2023-05-04T08:25:57.724Z,2.85
2023-05-04T08:29:07.806Z,3.20
2023-05-04T08:32:12.849Z,2.60
2023-05-04T08:35:16.436Z,2.85
2023-05-04T08:38:19.739Z,2.75
2023-05-04T08:41:23.310Z,2.60
2023-05-04T08:44:27.229Z,2.55
2023-05-04T08:47:32.057Z,2.55
2023-05-04T08:50:36.455Z,2.70
2023-05-04T08:53:45.555Z,2.70
2023-05-04T08:56:48.796Z,3.10
2023-05-04T08:59:54.465Z,2.70
2023-05-04T09:03:00.965Z,2.70
2023-05-04T09:06:04.634Z,2.67
2023-05-04T09:09:10.062Z,2.90
2023-05-04T09:12:13.715Z,3.10
2023-05-04T09:15:18.219Z,2.85
2023-05-04T09:18:23.077Z,2.95
2023-05-04T09:21:30.518Z,2.80
2023-05-04T09:24:33.882Z,2.47
2023-05-04T09:27:37.205Z,2.75
2023-05-04T09:30:40.630Z,2.80
2023-05-04T09:33:45.770Z,2.88
2023-05-04T09:37:00.632Z,2.80
2023-05-04T09:40:03.996Z,2.85
2023-05-04T09:43:07.563Z,2.80
2023-05-04T09:46:17.493Z,2.70
2023-05-04T09:49:31.956Z,2.83
2023-05-04T09:52:35.529Z,2.90
2023-05-04T09:55:41.652Z,2.60
2023-05-04T09:58:46.653Z,2.50
2023-05-04T10:01:51.306Z,2.97
2023-05-04T10:04:59.217Z,2.70
2023-05-04T10:08:02.676Z,3.00
2023-05-04T10:11:07.447Z,3.00
2023-05-04T10:14:11.586Z,2.83
2023-05-04T10:17:23.743Z,2.53
2023-05-04T10:20:56.358Z,2.28
2023-05-04T10:24:18.391Z,2.30
2023-05-04T10:27:36.385Z,2.38
2023-05-04T10:30:40.053Z,2.45
2023-05-04T10:33:44.091Z,2.22
2023-05-04T10:36:48.734Z,2.30
2023-05-04T10:39:53.614Z,2.22
2023-05-04T10:42:56.862Z,7.90
2023-05-04T10:46:02.121Z,2.30
2023-05-04T10:49:17.910Z,2.20
2023-05-04T10:52:22.652Z,2.35
2023-05-04T10:55:26.007Z,2.13
2023-05-04T10:58:30.126Z,2.20
2023-05-04T11:01:43.877Z,1.88
2023-05-04T11:04:47.356Z,2.20
2023-05-04T11:07:53.301Z,2.10
2023-05-04T11:11:04.810Z,2.30
2023-05-04T11:14:08.315Z,1.83
2023-05-04T11:17:27.396Z,1.80
2023-05-04T11:20:31.808Z,1.92
2023-05-04T11:23:36.860Z,2.10
2023-05-04T11:26:48.877Z,2.05
2023-05-04T11:29:59.333Z,1.63
2023-05-04T11:33:05.115Z,1.73
2023-05-04T11:36:08.833Z,1.85
2023-05-04T11:39:13.735Z,2.08
2023-05-04T11:42:17.494Z,2.33
2023-05-04T11:45:23.308Z,1.83
2023-05-04T11:48:28.001Z,1.70
2023-05-04T11:51:31.227Z,2.00
2023-05-04T11:54:36.946Z,1.92
2023-05-04T11:57:40.517Z,1.88
2023-05-04T12:00:45.412Z,1.75
2023-05-04T12:03:53.910Z,2.00
2023-05-04T12:06:58.965Z,1.67
2023-05-04T12:10:05.130Z,2.00
2023-05-04T12:13:17.743Z,1.90
2023-05-04T12:16:21.885Z,1.60
2023-05-04T12:19:26.064Z,1.50
2023-05-04T12:22:30.268Z,1.90
2023-05-04T12:25:41.379Z,1.60
2023-05-04T12:28:51.346Z,1.80
2023-05-04T12:31:54.712Z,1.55
2023-05-04T12:34:58.377Z,5.97
2023-05-04T12:38:01.970Z,1.92
2023-05-04T12:41:10.873Z,1.60
2023-05-04T12:44:14.327Z,1.70
2023-05-04T12:47:18.495Z,2.08
2023-05-04T12:50:21.788Z,1.92
2023-05-04T12:53:28.023Z,1.80
2023-05-04T12:56:34.574Z,1.55
2023-05-04T12:59:37.985Z,2.00
2023-05-04T13:02:41.360Z,1.85
2023-05-04T13:05:45.369Z,1.95
2023-05-04T13:08:48.706Z,1.85
2023-05-04T13:11:53.493Z,1.90
2023-05-04T13:14:58.017Z,2.63
2023-05-04T13:18:01.628Z,3.22
2023-05-04T13:21:05.147Z,7.80
2023-05-04T13:24:09.179Z,3.08
2023-05-04T13:27:13.836Z,1.90
2023-05-04T13:30:19.975Z,1.80
2023-05-04T13:33:29.666Z,1.50
2023-05-04T13:36:33.965Z,2.15
2023-05-04T13:39:42.193Z,1.80
2023-05-04T13:42:46.974Z,2.10
2023-05-04T13:45:50.301Z,1.90
2023-05-04T13:48:55.704Z,1.70
2023-05-04T13:52:00.649Z,1.60
2023-05-04T13:55:04.706Z,1.67
2023-05-04T13:58:09.918Z,2.00
2023-05-04T14:01:13.301Z,1.70
2023-05-04T14:04:16.585Z,1.88
2023-05-04T14:07:20.028Z,1.75
2023-05-04T14:10:23.468Z,1.73
2023-05-04T14:13:28.240Z,2.00
2023-05-04T14:16:31.550Z,1.40
2023-05-04T14:19:34.866Z,1.55
2023-05-04T14:22:41.177Z,1.70
2023-05-04T14:25:51.397Z,1.48
2023-05-04T14:28:56.228Z,1.70
2023-05-04T14:31:59.454Z,1.85
2023-05-04T14:35:06.650Z,2.03
2023-05-04T14:38:10.601Z,2.05
2023-05-04T14:41:15.342Z,1.80
2023-05-04T14:44:20.146Z,1.95
2023-05-04T14:47:23.791Z,2.03
2023-05-04T14:50:28.544Z,1.80
2023-05-04T14:53:37.115Z,65.32
2023-05-04T14:56:42.749Z,8.57
2023-05-04T14:59:48.722Z,1.90
2023-05-04T15:02:53.901Z,2.40
2023-05-04T15:05:58.475Z,2.08
2023-05-04T15:09:03.013Z,6.03
2023-05-04T15:12:08.646Z,2.05
2023-05-04T15:15:14.806Z,2.10
2023-05-04T15:18:18.260Z,1.65
2023-05-04T15:21:21.713Z,1.48
2023-05-04T15:24:24.919Z,1.55
2023-05-04T15:27:28.104Z,1.70
2023-05-04T15:30:32.708Z,1.70
2023-05-04T15:33:35.964Z,1.48
2023-05-04T15:36:39.301Z,1.38
2023-05-04T15:39:42.762Z,1.60
2023-05-04T15:42:46.004Z,2.05
2023-05-04T15:45:52.679Z,1.55
2023-05-04T15:48:56.678Z,1.60
2023-05-04T15:52:00.227Z,1.50
2023-05-04T15:55:16.334Z,1.27
2023-05-04T15:58:27.471Z,1.45
2023-05-04T16:01:33.389Z,1.75
2023-05-04T16:04:36.991Z,1.73
2023-05-04T16:07:49.354Z,1.50
2023-05-04T16:11:02.442Z,1.60
2023-05-04T16:14:05.694Z,1.45
2023-05-04T16:17:10.362Z,1.35
2023-05-04T16:20:13.893Z,1.50
2023-05-04T16:23:18.724Z,1.50
2023-05-04T16:26:22.245Z,2.00
2023-05-04T16:29:25.682Z,1.90
2023-05-04T16:32:30.471Z,2.10
2023-05-04T16:35:33.849Z,1.70
2023-05-04T16:38:37.107Z,2.15
2023-05-04T16:41:41.283Z,2.00
2023-05-04T16:44:44.930Z,1.80
2023-05-04T16:47:49.793Z,1.75
2023-05-04T16:50:53.445Z,2.08
2023-05-04T16:53:56.893Z,2.13
2023-05-04T16:57:02.289Z,2.00
2023-05-04T17:00:06.836Z,2.28
2023-05-04T17:03:11.902Z,2.15
2023-05-04T17:06:15.369Z,2.28
2023-05-04T17:09:18.785Z,3.67
2023-05-04T17:12:23.247Z,3.05
2023-05-04T17:15:26.691Z,2.75
2023-05-04T17:18:31.483Z,5.88
2023-05-04T17:21:34.941Z,2.08
2023-05-04T17:24:38.358Z,2.60
2023-05-04T17:27:43.825Z,2.65
2023-05-04T17:30:47.204Z,2.47
2023-05-04T17:33:52.543Z,2.40
2023-05-04T17:37:00.294Z,2.50
2023-05-04T17:40:25.005Z,2.50
2023-05-04T17:43:32.325Z,2.72
2023-05-04T17:46:44.406Z,3.15
2023-05-04T17:49:52.513Z,3.33
2023-05-04T17:52:57.923Z,4.75
2023-05-04T17:56:02.933Z,4.20
2023-05-04T17:59:10.689Z,4.70
2023-05-04T18:02:14.305Z,5.03
2023-05-04T18:05:19.273Z,4.97
2023-05-04T18:08:22.716Z,5.28
2023-05-04T18:11:26.234Z,5.43
2023-05-04T18:14:29.625Z,6.38
2023-05-04T18:17:32.924Z,6.38
2023-05-04T18:20:41.576Z,6.80
2023-05-04T18:23:48.178Z,8.02
2023-05-04T18:26:56.246Z,10.27
2023-05-04T18:29:59.952Z,11.25
2023-05-04T18:33:04.009Z,11.35
2023-05-04T18:36:09.244Z,11.15
2023-05-04T18:39:13.729Z,12.52
2023-05-04T18:42:17.972Z,13.38
2023-05-04T18:45:21.654Z,14.20
2023-05-04T18:48:34.155Z,15.45
2023-05-04T18:51:55.527Z,47.15
2023-05-04T18:55:05.730Z,64.82
2023-05-04T18:58:21.190Z,59.03
2023-05-04T19:01:35.791Z,48.30
2023-05-04T19:04:40.678Z,50.83
2023-05-04T19:07:48.147Z,43.80
2023-05-04T19:10:51.518Z,29.92
2023-05-04T19:13:55.799Z,26.75
2023-05-04T19:17:00.788Z,30.35
2023-05-04T19:20:04.810Z,29.45
2023-05-04T19:23:11.778Z,29.40
2023-05-04T19:26:15.427Z,31.52
2023-05-04T19:29:19.392Z,30.92
2023-05-04T19:32:24.761Z,30.95
2023-05-04T19:35:28.846Z,29.23
2023-05-04T19:38:37.732Z,29.02
2023-05-04T19:41:41.701Z,26.35
2023-05-04T19:44:46.307Z,24.25
2023-05-04T19:47:50.616Z,26.80
2023-05-04T19:50:54.332Z,29.63
2023-05-04T19:54:00.182Z,31.30
2023-05-04T19:57:05.008Z,34.20
2023-05-04T20:00:10.578Z,36.55
2023-05-04T20:03:17.117Z,36.50
2023-05-04T20:06:20.703Z,37.90
2023-05-04T20:09:25.865Z,34.33
2023-05-04T20:12:29.527Z,34.10
2023-05-04T20:15:33.150Z,31.60
2023-05-04T20:18:37.434Z,26.30
2023-05-04T20:21:48.578Z,29.90
2023-05-04T20:24:57.434Z,31.98
2023-05-04T20:28:02.257Z,35.88
2023-05-04T20:31:07.726Z,35.35
2023-05-04T20:34:11.843Z,34.78
2023-05-04T20:37:15.451Z,31.42
2023-05-04T20:40:25.288Z,28.73
2023-05-04T20:43:29.204Z,29.67
2023-05-04T20:46:33.055Z,27.48
2023-05-04T20:49:36.500Z,26.60
2023-05-04T20:52:41.523Z,26.45
2023-05-04T20:55:46.382Z,26.30
2023-05-04T20:58:49.776Z,25.48
2023-05-04T21:01:53.085Z,24.17
2023-05-04T21:04:56.485Z,24.60
2023-05-04T21:08:01.074Z,23.00
2023-05-04T21:11:06.518Z,22.08
2023-05-04T21:14:09.833Z,21.48
2023-05-04T21:17:13.077Z,21.27
2023-05-04T21:20:17.192Z,19.63
2023-05-04T21:23:20.666Z,19.00
2023-05-04T21:26:25.937Z,18.45
2023-05-04T21:29:29.478Z,18.13
2023-05-04T21:32:32.758Z,18.80
2023-05-04T21:35:36.038Z,18.77
2023-05-04T21:38:42.917Z,18.10
2023-05-04T21:41:47.598Z,18.02
2023-05-04T21:44:55.338Z,18.13
2023-05-04T21:47:58.646Z,16.70
2023-05-04T21:51:02.050Z,15.77
2023-05-04T21:54:05.325Z,14.73
2023-05-04T21:57:10.277Z,15.15
2023-05-04T22:00:18.169Z,14.13
2023-05-04T22:03:21.765Z,14.40
2023-05-04T22:06:25.857Z,14.57
2023-05-04T22:09:29.491Z,14.68
2023-05-04T22:12:34.242Z,14.15
2023-05-04T22:15:48.791Z,13.82
2023-05-04T22:18:52.972Z,14.63
2023-05-04T22:21:56.434Z,14.32
2023-05-04T22:24:59.668Z,15.35
2023-05-04T22:28:04.981Z,14.60
2023-05-04T22:31:08.229Z,14.82
2023-05-04T22:34:11.494Z,14.73
2023-05-04T22:37:14.727Z,14.27
2023-05-04T22:40:18.528Z,15.13
2023-05-04T22:43:23.470Z,14.52
2023-05-04T22:46:26.824Z,14.95
2023-05-04T22:49:29.999Z,14.63
2023-05-04T22:52:33.278Z,14.40
2023-05-04T22:55:36.534Z,14.60
2023-05-04T22:58:41.188Z,15.07
2023-05-04T23:01:44.444Z,15.50
2023-05-04T23:04:47.744Z,15.45
2023-05-04T23:07:52.344Z,16.00
2023-05-04T23:10:55.691Z,16.77
2023-05-04T23:14:00.945Z,16.38
2023-05-04T23:17:04.288Z,16.42
2023-05-04T23:20:09.317Z,16.25
2023-05-04T23:23:13.250Z,18.27
2023-05-04T23:26:16.600Z,18.58
2023-05-04T23:29:21.544Z,17.27
2023-05-04T23:32:25.094Z,18.05
2023-05-04T23:35:28.365Z,17.35
2023-05-04T23:38:31.669Z,16.52
2023-05-04T23:41:34.913Z,17.08
2023-05-04T23:44:39.506Z,17.30
2023-05-04T23:47:42.971Z,16.75
2023-05-04T23:50:53.470Z,16.13
2023-05-04T23:57:00.039Z,14.73
